Circon — UFZR — position and weather

sailwx.info

Track history (hours):
 
Tides and Currents Weather Stations Pressure Air Temp Water Temp Dewpoint Dewpoint Depression Visibility Wind Speed Wind Dir Waves Ship Positions

Circon

Last reported at 2017-Oct-18 04:17 UTC. Time now 2017-Oct-19 11:13 UTC.
Position N 45°32' E 036°47'.

Length 138 m; draft 2.4 m.

Type: Cargo ship. MMSI: 273379800.

Date/timePositionNaut miles runAvg speedWind from/ knotsBaromVisibWave heightAir tempDewpointWater temp
2017-Oct-18 04:17N 45°32' E 036°47'3 6.6
2017-Oct-18 03:49N 45°30' E 036°44'2 6.6
2017-Oct-18 03:30N 45°28' E 036°43'4 7.2
2017-Oct-18 03:00N 45°25' E 036°41'3 6.9
2017-Oct-18 02:30N 45°21' E 036°39'3 5.7
2017-Oct-18 02:00N 45°20' E 036°36'3 5.4
2017-Oct-18 01:30N 45°19' E 036°32'3 5.7
2017-Oct-18 01:00N 45°17' E 036°29'3 6.6
2017-Oct-18 00:30N 45°14' E 036°29'3 5.0
2017-Oct-17 23:59N 45°11' E 036°29'1 1.2
2017-Oct-17 23:16N 45°11' E 036°30'0 0.0
2017-Oct-17 22:58N 45°11' E 036°30'0 0.0
2017-Oct-17 19:39N 45°11' E 036°30'0 0.0
2017-Oct-17 19:21N 45°11' E 036°30'0 0.0
2017-Oct-17 18:52N 45°11' E 036°30'0 0.0
2017-Oct-17 18:16N 45°11' E 036°30'0 0.0
2017-Oct-17 17:55N 45°11' E 036°30'0 0.0
2017-Oct-17 17:25N 45°11' E 036°30'0 0.0
2017-Oct-17 15:06N 45°11' E 036°30'0 0.0
2017-Oct-17 14:48N 45°11' E 036°30'0 0.2
2017-Oct-17 14:30N 45°11' E 036°30'0 0.0
2017-Oct-17 13:55N 45°11' E 036°30'0 0.0
2017-Oct-17 13:10N 45°11' E 036°30'0 0.0
2017-Oct-17 12:44N 45°11' E 036°30'0 0.1
2017-Oct-17 12:30N 45°11' E 036°30'0 0.1
2017-Oct-17 12:00N 45°11' E 036°30'0 0.0
2017-Oct-17 11:29N 45°11' E 036°30'1 2.1
2017-Oct-17 11:00N 45°10' E 036°30'3 6.5
2017-Oct-17 10:29N 45°08' E 036°34'0 1.0
2017-Oct-17 10:00N 45°08' E 036°35'0 0.0
2017-Oct-17 09:31N 45°08' E 036°35'0 0.0
2017-Oct-17 08:07N 45°08' E 036°35'0 0.1
2017-Oct-17 07:57N 45°08' E 036°35'0 0.0
2017-Oct-17 07:28N 45°08' E 036°35'0 0.0
2017-Oct-17 06:55N 45°08' E 036°35'0 0.0
2017-Oct-17 00:19N 45°08' E 036°35'1 0.3
2017-Oct-16 19:39N 45°08' E 036°33'7 5.0
2017-Oct-16 18:12N 45°13' E 036°26'0 0.0
2017-Oct-16 09:10N 45°13' E 036°26'0 0.0
2017-Oct-16 04:52N 45°13' E 036°26'0 0.0
2017-Oct-15 16:34N 45°13' E 036°26'0 0.0
2017-Oct-15 16:22N 45°13' E 036°26'0 0.0
2017-Oct-15 15:46N 45°13' E 036°26'0 0.0
2017-Oct-15 09:44N 45°13' E 036°26'0 0.0
2017-Oct-15 05:14N 45°13' E 036°26'0 0.0
2017-Oct-15 04:56N 45°13' E 036°26'0 0.0
2017-Oct-15 04:18N 45°13' E 036°26'0 0.0
2017-Oct-15 03:54N 45°13' E 036°26'0 0.3
2017-Oct-15 02:21N 45°13' E 036°26'1 3.4
2017-Oct-15 02:00N 45°13' E 036°27'2 4.7
2017-Oct-15 01:30N 45°16' E 036°28'3 5.6
2017-Oct-15 01:01N 45°18' E 036°29'3 6.2
2017-Oct-15 00:31N 45°19' E 036°33'3 6.3
2017-Oct-15 00:01N 45°21' E 036°37'3 5.7
2017-Oct-14 23:30N 45°23' E 036°40'3 5.8
2017-Oct-14 23:01N 45°26' E 036°41'2 4.8
2017-Oct-14 22:31N 45°27' E 036°38'1 1.4
2017-Oct-14 21:59N 45°27' E 036°37'  
2017-Oct-12 14:43N 45°34' E 036°40'1 7.0
2017-Oct-12 14:30N 45°34' E 036°42'  
Track history (hours):
 
Tides and Currents Weather Stations Pressure Air Temp Water Temp Dewpoint Dewpoint Depression Visibility Wind Speed Wind Dir Waves Ship Positions

Circon

Last reported at 2017-Oct-18 04:17 UTC. Time now 2017-Oct-19 11:13 UTC.
Position N 45°32' E 036°47'.

Length 138 m; draft 2.4 m.

Type: Cargo ship. MMSI: 273379800.

Date/timePositionNaut miles runAvg speedWind from/ knotsBaromVisibWave heightAir tempDewpointWater temp
2017-Oct-18 04:17N 45°32' E 036°47'3 6.6
2017-Oct-18 03:49N 45°30' E 036°44'2 6.6
2017-Oct-18 03:30N 45°28' E 036°43'4 7.2
2017-Oct-18 03:00N 45°25' E 036°41'3 6.9
2017-Oct-18 02:30N 45°21' E 036°39'3 5.7
2017-Oct-18 02:00N 45°20' E 036°36'3 5.4
2017-Oct-18 01:30N 45°19' E 036°32'3 5.7
2017-Oct-18 01:00N 45°17' E 036°29'3 6.6
2017-Oct-18 00:30N 45°14' E 036°29'3 5.0
2017-Oct-17 23:59N 45°11' E 036°29'1 1.2
2017-Oct-17 23:16N 45°11' E 036°30'0 0.0
2017-Oct-17 22:58N 45°11' E 036°30'0 0.0
2017-Oct-17 19:39N 45°11' E 036°30'0 0.0
2017-Oct-17 19:21N 45°11' E 036°30'0 0.0
2017-Oct-17 18:52N 45°11' E 036°30'0 0.0
2017-Oct-17 18:16N 45°11' E 036°30'0 0.0
2017-Oct-17 17:55N 45°11' E 036°30'0 0.0
2017-Oct-17 17:25N 45°11' E 036°30'0 0.0
2017-Oct-17 15:06N 45°11' E 036°30'0 0.0
2017-Oct-17 14:48N 45°11' E 036°30'0 0.2
2017-Oct-17 14:30N 45°11' E 036°30'0 0.0
2017-Oct-17 13:55N 45°11' E 036°30'0 0.0
2017-Oct-17 13:10N 45°11' E 036°30'0 0.0
2017-Oct-17 12:44N 45°11' E 036°30'0 0.1
2017-Oct-17 12:30N 45°11' E 036°30'0 0.1
2017-Oct-17 12:00N 45°11' E 036°30'0 0.0
2017-Oct-17 11:29N 45°11' E 036°30'1 2.1
2017-Oct-17 11:00N 45°10' E 036°30'3 6.5
2017-Oct-17 10:29N 45°08' E 036°34'0 1.0
2017-Oct-17 10:00N 45°08' E 036°35'0 0.0
2017-Oct-17 09:31N 45°08' E 036°35'0 0.0
2017-Oct-17 08:07N 45°08' E 036°35'0 0.1
2017-Oct-17 07:57N 45°08' E 036°35'0 0.0
2017-Oct-17 07:28N 45°08' E 036°35'0 0.0
2017-Oct-17 06:55N 45°08' E 036°35'0 0.0
2017-Oct-17 00:19N 45°08' E 036°35'1 0.3
2017-Oct-16 19:39N 45°08' E 036°33'7 5.0
2017-Oct-16 18:12N 45°13' E 036°26'0 0.0
2017-Oct-16 09:10N 45°13' E 036°26'0 0.0
2017-Oct-16 04:52N 45°13' E 036°26'0 0.0
2017-Oct-15 16:34N 45°13' E 036°26'0 0.0
2017-Oct-15 16:22N 45°13' E 036°26'0 0.0
2017-Oct-15 15:46N 45°13' E 036°26'0 0.0
2017-Oct-15 09:44N 45°13' E 036°26'0 0.0
2017-Oct-15 05:14N 45°13' E 036°26'0 0.0
2017-Oct-15 04:56N 45°13' E 036°26'0 0.0
2017-Oct-15 04:18N 45°13' E 036°26'0 0.0
2017-Oct-15 03:54N 45°13' E 036°26'0 0.3
2017-Oct-15 02:21N 45°13' E 036°26'1 3.4
2017-Oct-15 02:00N 45°13' E 036°27'2 4.7
2017-Oct-15 01:30N 45°16' E 036°28'3 5.6
2017-Oct-15 01:01N 45°18' E 036°29'3 6.2
2017-Oct-15 00:31N 45°19' E 036°33'3 6.3
2017-Oct-15 00:01N 45°21' E 036°37'3 5.7
2017-Oct-14 23:30N 45°23' E 036°40'3 5.8
2017-Oct-14 23:01N 45°26' E 036°41'2 4.8
2017-Oct-14 22:31N 45°27' E 036°38'1 1.4
2017-Oct-14 21:59N 45°27' E 036°37'  
2017-Oct-12 14:43N 45°34' E 036°40'1 7.0
2017-Oct-12 14:30N 45°34' E 036°42'  

Dump ship's entire track history